Latest Weather Observations for Green Cape

IDN60801

Issued at 7:32 pm EST Sunday 1 May 2016 (issued every 30 minutes, with the page automatically refreshed every 10 minutes)

About weather observations | Map of weather stations | Latest weather observations for NSW | Other Formats
Station Details ID: 069137 Name: GREEN CAPE AWS Lat: -37.26 Lon: 150.05 Height: 19.4 m
Data from the previous 72 hours. | See also: Recent months at Green Cape
Date/Time
EST
Temp
°C
App
Temp
°C
Dew
Point
Rel
Hum
%
Delta-T
°C
Wind Press
QNH
hPa
Press
MSL
hPa
Rain
since 9 am
mm
Dir
 
Spd
km/h
Gust
km/h
Spd
kts
Gust
kts
01/07:30pm 15.7 8.0 8.7 63 3.6 WSW 39 50 21 27 1011.2 1011.2 0.0
01/07:00pm 15.7 7.2 9.1 65 3.4 SW 44 56 24 30 1010.6 1010.6 0.0
01/06:30pm 16.5 7.7 9.7 64 3.6 SW 46 57 25 31 1009.9 1009.9 0.0
01/06:13pm 18.2 11.0 9.0 55 4.8 WSW 37 48 20 26 1009.5 1009.5 0.0
01/06:00pm 19.3 9.7 4.6 38 7.1 W 44 63 24 34 1009.1 1009.1 0.0
01/05:56pm 19.3 10.3 4.6 38 7.1 W 41 61 22 33 1009.0 1009.0 0.0
01/05:30pm 19.4 11.9 4.4 37 7.2 W 33 46 18 25 1008.5 1008.5 0.0
01/05:20pm 19.4 13.1 5.5 40 6.8 WNW 28 46 15 25 1008.2 1008.2 0.0
01/05:00pm 20.1 12.7 5.0 37 7.4 WNW 33 44 18 24 1007.7 1007.7 0.0
01/04:30pm 20.8 11.6 3.5 32 8.2 WNW 41 61 22 33 1006.9 1006.9 0.0
01/04:11pm 21.2 10.7 1.5 27 9.1 WNW 46 65 25 35 1006.5 1006.5 0.0
01/04:00pm 21.3 11.2 4.0 32 8.4 W 46 61 25 33 1006.4 1006.4 0.0
01/03:49pm 21.2 13.8 6.7 39 7.4 WNW 35 57 19 31 1006.1 1006.1 0.0
01/03:30pm 22.0 15.4 4.1 31 8.7 WNW 28 41 15 22 1005.8 1005.8 0.0
01/03:25pm 22.2 14.8 3.8 30 8.9 WNW 32 52 17 28 1005.6 1005.6 0.0
01/03:00pm 22.4 14.7 5.4 33 8.5 WNW 35 50 19 27 1005.5 1005.5 0.0
01/02:36pm 22.6 14.0 6.4 35 8.3 WNW 41 61 22 33 1004.8 1004.8 0.0
01/02:30pm 22.3 13.3 6.5 36 8.1 W 43 61 23 33 1004.6 1004.6 0.0
01/02:29pm 22.4 13.9 7.0 37 7.9 W 41 61 22 33 1004.5 1004.5 0.0
01/02:00pm 23.7 16.2 4.6 29 9.5 WNW 33 46 18 25 1004.1 1004.1 0.0
01/01:33pm 23.5 15.3 4.9 30 9.3 WNW 37 57 20 31 1003.6 1003.6 0.0
01/01:30pm 23.7 16.1 5.6 31 9.2 WNW 35 48 19 26 1003.7 1003.7 0.0
01/01:00pm 24.7 15.7 4.5 27 10.1 WNW 41 61 22 33 1003.4 1003.4 0.0
01/12:47pm 24.6 16.8 4.9 28 9.9 NW 35 70 19 38 1003.2 1003.2 0.0
01/12:46pm 24.7 17.1 6.0 30 9.6 NW 35 56 19 30 1003.3 1003.3 0.0
01/12:41pm 24.4 20.8 12.0 46 7.1 WNW 22 56 12 30 1003.4 1003.4 0.0
01/12:40pm 24.0 21.5 14.1 54 5.8 WNW 20 52 11 28 1003.3 1003.3 0.0
01/12:38pm 22.4 20.3 13.7 58 5.1 W 17 52 9 28 1003.4 1003.4 0.0
01/12:30pm 21.8 23.0 18.2 80 2.2 WSW 9 13 5 7 1003.8 1003.8 0.0
01/12:00pm 21.6 22.8 17.4 77 2.6 W 7 15 4 8 1003.9 1003.9 0.0
01/11:30am 21.1 21.1 17.3 79 2.3 WSW 13 20 7 11 1004.3 1004.3 0.0
01/11:00am 21.4 18.0 17.6 79 2.4 N 32 39 17 21 1004.1 1004.1 0.0
01/10:30am 22.4 20.2 18.8 80 2.3 N 28 32 15 17 1004.5 1004.5 0.0
01/10:00am 21.3 18.9 18.3 83 1.9 N 28 32 15 17 1004.7 1004.7 0.0
01/09:30am 20.5 17.6 17.9 85 1.6 N 30 35 16 19 1005.0 1004.9 0.0
01/09:00am 20.2 16.5 18.3 89 1.2 N 35 43 19 23 1005.1 1005.0 0.2
01/08:30am 19.6 16.3 17.9 90 1.0 N 32 37 17 20 1005.7 1005.6 0.2
01/08:00am 19.3 15.7 17.6 90 1.0 N 33 41 18 22 1005.8 1005.7 0.2
01/07:30am 19.3 14.4 17.4 89 1.2 N 39 44 21 24 1006.0 1005.9 0.2
01/07:00am 18.7 16.0 16.5 87 1.3 N 26 33 14 18 1006.0 1005.9 0.2
01/06:30am 18.8 14.7 15.9 83 1.7 NNE 32 35 17 19 1005.8 1005.7 0.0
01/06:00am 18.3 15.9 15.4 83 1.7 N 22 28 12 15 1007.5 1007.4 0.0
01/05:30am 17.9 15.0 15.2 84 1.6 N 24 28 13 15 1007.1 1007.0 0.0
01/05:00am 16.9 15.1 15.4 91 0.9 N 19 22 10 12 1006.7 1006.6 0.0
01/04:30am 16.9 15.5 15.6 92 0.8 N 17 19 9 10 1007.3 1007.2 0.0
01/04:00am 16.4 15.1 14.9 91 0.9 N 15 19 8 10 1007.8 1007.7 0.0
01/03:30am 16.3 16.7 14.7 90 0.9 N 6 6 3 3 1008.6 1008.6 0.0
01/03:00am 16.4 16.7 14.6 89 1.0 N 6 7 3 4 1009.0 1009.0 0.0
01/02:30am 16.3 16.7 14.7 90 0.9 N 6 9 3 5 1009.9 1009.9 0.0
01/02:00am 16.6 17.1 15.1 91 0.9 NNE 6 7 3 4 1009.7 1009.7 0.0
01/01:30am 17.3 19.1 15.6 90 1.0 CALM 0 0 0 0 1010.3 1010.3 0.0
01/01:00am 17.7 18.6 16.2 91 0.9 N 6 7 3 4 1011.0 1011.0 0.0
01/12:30am 17.7 18.6 16.0 90 1.0 WNW 6 7 3 4 1011.3 1011.3 0.0
01/12:00am 17.8 18.1 16.1 90 1.0 N 9 11 5 6 1011.9 1011.9 0.0
 
Date/Time
EST
Temp
°C
App
Temp
°C
Dew
Point
Rel
Hum
%
Delta-T
°C
Wind Press
QNH
hPa
Press
MSL
hPa
Rain
since 9 am
mm
Dir
 
Spd
km/h
Gust
km/h
Spd
kts
Gust
kts
30/11:30pm 17.6 18.5 16.1 91 0.9 NW 6 9 3 5 1012.4 1012.4 0.0
30/11:00pm 18.2 20.5 16.7 91 0.9 CALM 0 2 0 1 1012.6 1012.6 0.0
30/10:30pm 18.4 19.0 16.9 91 0.9 N 9 13 5 7 1013.0 1013.0 0.0
30/10:00pm 18.8 19.3 17.5 92 0.8 N 11 13 6 7 1013.3 1013.3 0.0
30/09:30pm 18.7 19.2 17.4 92 0.8 N 11 13 6 7 1013.3 1013.3 0.0
30/09:00pm 18.1 19.0 16.6 91 0.9 N 7 9 4 5 1013.5 1013.5 0.0
30/08:30pm 18.9 20.7 17.4 91 0.9 N 4 4 2 2 1013.6 1013.6 0.0
30/08:00pm 19.3 20.9 17.8 91 0.9 N 6 6 3 3 1013.9 1013.9 0.0
30/07:30pm 19.5 21.0 17.6 89 1.2 NNE 6 9 3 5 1013.9 1013.9 0.0
30/07:00pm 19.6 22.2 17.6 88 1.2 CALM 0 4 0 2 1013.9 1013.9 0.0
30/06:30pm 19.7 21.2 18.0 90 1.0 NNW 7 9 4 5 1014.2 1014.2 0.0
30/06:00pm 20.1 21.5 18.6 91 0.9 N 9 11 5 6 1014.0 1014.0 0.0
30/05:30pm 20.3 21.6 18.4 89 1.2 N 9 11 5 6 1013.9 1013.9 0.0
30/05:00pm 20.8 22.6 18.7 88 1.3 N 7 7 4 4 1013.8 1013.8 0.0
30/04:30pm 20.8 22.7 18.6 87 1.4 N 6 9 3 5 1013.9 1013.9 0.0
30/04:00pm 21.2 23.1 18.6 85 1.6 NNE 6 7 3 4 1013.9 1013.9 0.0
30/03:30pm 21.6 24.0 18.8 84 1.8 NNE 4 4 2 2 1013.8 1013.8 0.0
30/03:00pm 21.6 23.9 18.6 83 1.9 N 4 6 2 3 1013.9 1013.9 0.0
30/02:30pm 21.8 23.1 18.4 81 2.1 NNE 9 9 5 5 1013.9 1013.9 0.0
30/02:00pm 23.1 24.9 18.4 75 3.0 NNE 6 6 3 3 1014.0 1014.0 0.0
30/01:30pm 25.0 27.5 19.8 73 3.4 NNE 6 7 3 4 1014.0 1014.0 0.0
30/01:00pm 24.1 26.5 20.0 78 2.7 N 7 9 4 5 1014.2 1014.2 0.0
30/12:30pm 21.6 22.3 18.0 80 2.2 N 11 13 6 7 1014.6 1014.6 0.0
30/12:00pm 23.7 25.0 19.2 76 2.9 N 11 13 6 7 1015.1 1015.1 0.0
30/11:30am 22.1 23.0 18.5 80 2.3 N 11 13 6 7 1015.4 1015.4 0.0
30/11:00am 24.8 27.2 20.1 75 3.0 N 7 9 4 5 1015.9 1015.9 0.0
30/10:30am 22.9 24.6 18.4 76 2.8 N 7 9 4 5 1016.1 1016.1 0.0
30/10:00am 21.9 23.2 17.5 76 2.7 N 7 9 4 5 1016.5 1016.5 0.0
30/09:30am 20.6 22.8 16.6 78 2.4 CALM 0 4 0 2 1016.5 1016.5 0.0
30/09:00am 21.1 21.8 17.9 82 2.0 N 11 15 6 8 1016.5 1016.5 0.8
30/08:30am 20.8 22.1 17.6 82 2.0 N 7 11 4 6 1016.6 1016.6 0.8
30/08:00am 18.7 19.6 16.5 87 1.3 WNW 7 11 4 6 1016.5 1016.5 0.8
30/07:30am 18.5 17.4 16.3 87 1.3 N 17 22 9 12 1015.9 1015.9 0.8
30/07:00am 18.1 19.0 16.1 88 1.2 N 6 9 3 5 1015.9 1015.9 0.8
30/06:30am 18.3 20.0 16.1 87 1.3 WNW 2 7 1 4 1015.6 1015.6 0.8
30/06:00am 18.0 19.6 16.0 88 1.2 WNW 2 9 1 5 1015.5 1015.5 0.8
30/05:30am 18.5 19.2 15.7 84 1.7 NNW 6 9 3 5 1015.4 1015.4 0.8
30/05:00am 18.1 18.6 15.5 85 1.5 NW 7 9 4 5 1014.9 1014.9 0.8
30/04:30am 18.2 18.0 15.8 86 1.4 NNW 11 13 6 7 1014.7 1014.7 0.8
30/04:00am 18.1 18.2 16.6 91 0.9 N 11 17 6 9 1014.8 1014.8 0.8
30/03:30am 18.2 17.7 16.9 92 0.8 N 15 17 8 9 1014.7 1014.7 0.8
30/03:00am 18.2 17.3 16.9 92 0.8 N 17 20 9 11 1014.7 1014.7 0.8
30/02:30am 18.4 19.5 17.2 93 0.7 N 7 11 4 6 1014.7 1014.7 0.8
30/02:00am 18.5 19.8 17.2 92 0.8 N 6 7 3 4 1015.1 1015.1 0.8
30/01:30am 18.6 20.4 17.3 92 0.8 NNW 4 7 2 4 1015.1 1015.1 0.8
30/01:00am 18.3 19.4 17.1 93 0.7 WNW 7 9 4 5 1015.2 1015.2 0.8
30/12:30am 18.6 19.8 17.3 92 0.8 W 7 7 4 4 1015.2 1015.2 0.8
30/12:00am 18.8 20.3 17.6 93 0.7 WSW 6 6 3 3 1015.1 1015.1 0.8
 
Date/Time
EST
Temp
°C
App
Temp
°C
Dew
Point
Rel
Hum
%
Delta-T
°C
Wind Press
QNH
hPa
Press
MSL
hPa
Rain
since 9 am
mm
Dir
 
Spd
km/h
Gust
km/h
Spd
kts
Gust
kts
29/11:30pm 19.0 20.5 18.0 94 0.6 WSW 7 13 4 7 1015.5 1015.5 0.8
29/11:00pm 18.9 20.0 17.9 94 0.6 W 9 13 5 7 1015.5 1015.5 0.8
29/10:30pm 19.7 22.8 18.7 94 0.6 CALM 0 6 0 3 1015.7 1015.7 0.6
29/10:00pm 19.7 21.7 18.7 94 0.6 N 6 9 3 5 1015.7 1015.7 0.6
29/09:30pm 19.8 20.5 18.8 94 0.6 N 13 17 7 9 1015.9 1015.9 0.4
29/09:00pm 19.4 19.4 18.2 93 0.7 N 15 17 8 9 1015.7 1015.7 0.2
29/08:30pm 19.6 18.7 18.3 92 0.8 N 20 22 11 12 1015.3 1015.3 0.0
29/08:00pm 19.8 19.0 18.5 92 0.8 N 20 22 11 12 1015.0 1015.0 0.0
29/07:30pm 20.0 19.4 18.5 91 0.9 N 19 22 10 12 1014.8 1014.8 0.0
29/07:00pm 20.3 18.1 18.6 90 1.1 N 28 32 15 17 1014.8 1014.8 0.0
29/06:30pm 20.4 18.1 18.5 89 1.2 N 28 37 15 20 1014.8 1014.8 0.0
29/06:00pm 20.5 18.3 18.6 89 1.2 N 28 35 15 19 1014.6 1014.6 0.0
29/05:30pm 20.4 17.3 18.3 88 1.3 N 32 35 17 19 1014.3 1014.3 0.0
29/05:00pm 20.6 17.9 18.4 87 1.4 N 30 32 16 17 1014.3 1014.3 0.0
29/04:30pm 20.9 18.1 18.3 85 1.6 N 30 37 16 20 1014.6 1014.6 0.0
29/04:00pm 21.7 19.5 18.7 83 1.9 N 28 33 15 18 1014.7 1014.7 0.0
29/03:30pm 21.5 19.1 18.3 82 2.0 N 28 33 15 18 1014.4 1014.4 0.0
29/03:00pm 22.7 20.8 18.5 77 2.6 N 26 32 14 17 1014.7 1014.7 0.0
29/02:30pm 21.9 20.9 17.9 78 2.5 N 20 26 11 14 1014.8 1014.8 0.0
29/02:00pm 22.4 21.1 18.2 77 2.6 N 22 26 12 14 1015.2 1015.2 0.0
29/01:30pm 22.4 20.6 17.8 75 2.9 N 24 26 13 14 1015.3 1015.3 0.0
29/01:00pm 22.6 20.4 17.9 75 2.9 N 26 30 14 16 1015.4 1015.4 0.0
29/12:30pm 21.6 18.8 18.2 81 2.1 N 30 35 16 19 1016.1 1016.1 0.0
29/12:00pm 21.0 18.2 17.4 80 2.2 N 28 32 15 17 1016.6 1016.6 0.0
29/11:30am 20.6 19.5 17.2 81 2.1 NNE 19 20 10 11 1017.2 1017.2 0.0
29/11:00am 21.0 19.5 16.8 77 2.5 N 20 24 11 13 1017.8 1017.8 0.0
29/10:30am 20.2 18.1 16.2 78 2.4 N 22 28 12 15 1018.2 1018.2 0.0
29/10:00am 19.5 17.5 16.5 83 1.8 N 22 28 12 15 1018.6 1018.6 0.0
29/09:30am 19.7 17.7 16.5 82 1.9 N 22 28 12 15 1018.9 1018.9 0.0
29/09:00am 19.6 18.0 16.1 80 2.1 N 19 22 10 12 1019.3 1019.3 0.0
29/08:30am 18.1 17.3 15.2 83 1.7 N 13 17 7 9 1019.3 1019.3 0.0
29/08:00am 17.4 16.6 15.0 86 1.4 N 13 19 7 10 1019.5 1019.5 0.0
29/07:30am 16.6 16.7 13.9 84 1.5 WNW 6 9 3 5 1019.4 1019.4 0.0
29/07:00am 16.5 17.0 14.0 85 1.4 N 4 6 2 3 1019.2 1019.2 0.0
29/06:30am 16.1 15.5 13.6 85 1.4 W 9 13 5 7 1019.2 1019.2 0.0
29/06:00am 16.8 16.8 14.3 85 1.4 N 7 9 4 5 1018.9 1018.9 0.0
29/05:30am 16.6 16.9 14.6 88 1.1 NNW 6 7 3 4 1019.0 1019.0 0.0
29/05:00am 16.1 16.2 13.8 86 1.3 W 6 9 3 5 1019.1 1019.1 0.0
29/04:30am 16.3 16.2 14.0 86 1.3 W 7 11 4 6 1019.1 1019.1 0.0
29/04:00am 16.4 16.4 14.1 86 1.3 WNW 7 9 4 5 1019.0 1019.0 0.0
29/03:30am 17.8 18.2 15.2 85 1.5 NNW 7 9 4 5 1018.9 1018.9 0.0
29/03:00am 18.1 17.8 15.4 84 1.6 NNW 11 13 6 7 1019.2 1019.2 0.0
29/02:30am 17.5 18.8 14.0 80 2.0 CALM 0 0 0 0 1019.4 1019.4 0.0
29/02:00am 17.7 18.0 14.6 82 1.8 NNW 6 9 3 5 1019.7 1019.7 0.0
29/01:30am 18.0 19.5 14.7 81 1.9 CALM 0 0 0 0 1019.9 1019.9 0.0
29/01:00am 18.2 19.4 13.9 76 2.4 CALM 0 0 0 0 1020.1 1020.1 0.0
29/12:30am 18.2 18.5 13.5 74 2.7 WNW 4 6 2 3 1020.3 1020.3 0.0
29/12:00am 17.6 18.0 14.7 83 1.7 WNW 6 7 3 4 1020.3 1020.3 0.0
 
Date/Time
EST
Temp
°C
App
Temp
°C
Dew
Point
Rel
Hum
%
Delta-T
°C
Wind Press
QNH
hPa
Press
MSL
hPa
Rain
since 9 am
mm
Dir
 
Spd
km/h
Gust
km/h
Spd
kts
Gust
kts
28/11:30pm 18.0 18.9 16.0 88 1.2 NNE 6 6 3 3 1020.2 1020.2 0.0
28/11:00pm 17.6 18.8 15.8 89 1.1 WNW 4 4 2 2 1020.6 1020.6 0.0
28/10:30pm 18.8 19.7 17.5 92 0.8 N 9 11 5 6 1020.7 1020.7 0.0
28/10:00pm 18.8 19.7 17.5 92 0.8 N 9 11 5 6 1020.9 1020.9 0.0
28/09:30pm 18.7 19.2 17.4 92 0.8 N 11 13 6 7 1021.0 1021.0 0.0
28/09:00pm 18.9 20.1 17.4 91 0.9 N 7 9 4 5 1020.9 1020.9 0.0
28/08:30pm 19.0 20.5 17.5 91 0.9 N 6 7 3 4 1020.8 1020.8 0.0
28/08:00pm 19.0 20.2 17.3 90 1.0 N 7 11 4 6 1020.7 1020.7 0.0

Other Formats:

Comma delimited format used in spreadsheet applications
http://www.bom.gov.au/fwo/IDN60801/IDN60801.94934.axf

JavaScript Object Notation format (JSON) in row-major order
http://www.bom.gov.au/fwo/IDN60801/IDN60801.94934.json